首页
METAR-TAF:

METAR-TAF

机场 :

哈尔滨, 中华人民共和国

哈尔滨太平国际机场

纬度: 45-45N, 经度: 126-46E, 海拔: 143米

当前天气观测

该预报发布于49分钟前的05:00 UTC
风速6节,风向东南,在之间变化
温度 -7°C
湿度 38%
气压 1025 hPa
能见度10公里或以上
1500米以下无云,无积雨云

METAR: ZYHB 250500Z 13003MPS 100V170 CAVOK M07/M19 Q1025 NOSIG

时间: 13:49 (05:49 UTC)

预报

该预报发布于2小时和46分钟前的03:03 UTC
预报有效从25日的 06点(UTC)到 26日的 06点(UTC)
风速8节,风向东南
能見度: 4000
少量云层高于3300英尺

TAF: ZYHB 250303Z 2506/2606 13004MPS 4000 HZ FEW033 TXM05/06Z TNM20/21Z

超过4000个机场的气象观测和天气预报(METAR&TAF报告)。

可查询的气象台以黄色和红色小点在地图上表示。

将鼠标移到小点上方,可查看气象台名称。

然后点击查看天气观测和预报。

如需切换地图:点击带黑十字的绿色按钮放大地图;点击带横线的绿色按钮缩小地图;或者点击绿色箭头查看邻近地区的地图。


METAR-TAF: